עמוד ראשי
METAR-TAF:

METAR-TAF

שדות תעופה :

Río Hato, פנמה

קו רוחב: 08-22-33N, קו אורך: 080-07-40W, גובה: 32מטר

תצפית מזג אוויר נוכחית

הדו"ח נערך לפני 55דקות, בשעה 16:00 UTC
רוח 7קשר מכיוון צפון, משתנה בין צפון-מערב ו צפון/צפון-מזרח
טמפרטורת 30 צלסיוס
לחות 70%
לחץ 1011 hPa
ראות: 9000מטר
עננים פזורים בגובה 2000רגל
עננים בינוניים בגובה 8000רגל

METAR: MPSM 241600Z 35007KT 310V030 9000 SCT020 BKN080 30/24 Q1011

זמן: 11:55 (16:55 UTC)

תחזית

הדו"ח נערך לפני 5 שעות ו 55דקות, בשעה 11:00 UTC
תחזית בתוקף מ 24 ב 12 UTC עד 25 ב 18 UTC
רוח 7קשר מכיוון צפון-מערב
ראות 10 קילומטר או יותר
עננים פזורים בגובה 1800רגל
זמנית מ -
24 ב 18 UTC עד 24 ב 22 UTC
רוח 12קשר מכיוון דרום/דרום-מזרח
ראות: 5000מטר
עננים פזורים בגובה 1500רגל , קומולונימבוס.
עננים בינוניים בגובה 8000רגל
סופת רעמים, גשם
זמנית מ -
24 ב 22 UTC עד 24 ב 23 UTC

TAF: MPSM 241100Z 2412/2518 32007KT 9999 SCT018 TEMPO 2418/2422 16012KT 5000 TSRA SCT015CB BKN080 TEMPO 2422/2423 NSW

תצפיות ותחזיות מזג אוויר לגבי יותר מ- 4,000 שדות תעופה ברחבי העולם. דוחות METAR ו- TAF.

התחנות הזמינות מסומנות בנקודות צהובות ואדומות על גבי המפה.

העבר את העכבר לנקודה הצבעונית על מנת לראות את שם התחנה.

לאחר מכן, לחץ כדי לראות את תוכן ואת תחזיות מזג האוויר.

כדי לשנות את המפה: לחץ על הכפתורים הירוקים עם הפלוס השחור כדי להתקרב; על הכפתור הירוק עם המקף כדי להתרחק; או בחיצים הירוקים למפות סמוכות.


METAR-TAF: